createdAt,value
2022-12-26T00:00:28.281Z,100.00
2022-12-26T00:03:16.583Z,100.00
2022-12-26T00:06:04.634Z,100.00
2022-12-26T00:08:53.155Z,100.00
2022-12-26T00:11:41.960Z,100.00
2022-12-26T00:14:33.397Z,100.00
2022-12-26T00:17:21.155Z,100.00
2022-12-26T00:20:09.684Z,100.00
2022-12-26T00:22:57.057Z,100.00
2022-12-26T00:25:44.322Z,100.00
2022-12-26T00:28:33.210Z,100.00
2022-12-26T00:31:22.654Z,100.00
2022-12-26T00:34:11.666Z,100.00
2022-12-26T00:36:59.226Z,100.00
2022-12-26T00:39:47.167Z,100.00
2022-12-26T00:42:34.884Z,100.00
2022-12-26T00:45:23.877Z,100.00
2022-12-26T00:48:11.195Z,100.00
2022-12-26T00:50:58.726Z,100.00
2022-12-26T00:53:46.583Z,100.00
2022-12-26T00:56:34.180Z,100.00
2022-12-26T00:59:21.774Z,100.00
2022-12-26T01:02:30.839Z,100.00
2022-12-26T01:05:18.839Z,100.00
2022-12-26T01:08:19.770Z,100.00
2022-12-26T01:11:11.513Z,100.00
2022-12-26T01:13:59.439Z,100.00
2022-12-26T01:16:48.738Z,100.00
2022-12-26T01:19:38.491Z,100.00
2022-12-26T01:22:26.768Z,100.00
2022-12-26T01:25:14.560Z,100.00
2022-12-26T01:28:01.791Z,100.00
2022-12-26T01:30:49.329Z,100.00
2022-12-26T01:33:36.745Z,100.00
2022-12-26T01:36:25.559Z,100.00
2022-12-26T01:39:12.849Z,100.00
2022-12-26T01:42:00.271Z,100.00
2022-12-26T01:45:05.474Z,100.00
2022-12-26T01:47:59.582Z,100.00
2022-12-26T01:50:50.189Z,100.00
2022-12-26T01:53:43.884Z,100.00
2022-12-26T01:56:35.588Z,100.00
2022-12-26T01:59:27.926Z,100.00
2022-12-26T02:02:17.094Z,100.00
2022-12-26T02:05:22.039Z,100.00
2022-12-26T02:08:13.155Z,100.00
2022-12-26T02:11:09.114Z,100.00
2022-12-26T02:13:58.142Z,100.00
2022-12-26T02:16:46.458Z,100.00
2022-12-26T02:19:44.243Z,100.00
2022-12-26T02:22:55.748Z,100.00
2022-12-26T02:26:11.489Z,100.00
2022-12-26T02:29:39.328Z,100.00
2022-12-26T02:32:49.477Z,100.00
2022-12-26T02:36:02.232Z,100.00
2022-12-26T02:39:01.726Z,100.00
2022-12-26T02:41:55.726Z,100.00
2022-12-26T02:45:08.302Z,100.00
2022-12-26T02:48:05.685Z,100.00
2022-12-26T02:51:20.510Z,100.00
2022-12-26T02:54:34.171Z,100.00
2022-12-26T02:57:42.782Z,100.00
2022-12-26T03:00:48.306Z,100.00
2022-12-26T03:03:57.709Z,100.00
2022-12-26T03:07:12.107Z,100.00
2022-12-26T03:10:20.729Z,100.00
2022-12-26T03:13:12.285Z,100.00
2022-12-26T03:16:20.652Z,100.00
2022-12-26T03:19:12.506Z,100.00
2022-12-26T03:22:22.448Z,100.00
2022-12-26T03:25:30.301Z,100.00
2022-12-26T03:28:18.731Z,100.00
2022-12-26T03:31:07.956Z,100.00
2022-12-26T03:34:19.685Z,100.00
2022-12-26T03:37:48.648Z,100.00
2022-12-26T03:41:10.603Z,100.00
2022-12-26T03:44:30.820Z,100.00
2022-12-26T03:47:41.073Z,100.00
2022-12-26T03:50:51.820Z,100.00
2022-12-26T03:54:03.907Z,100.00
2022-12-26T03:57:14.231Z,100.00
2022-12-26T04:00:24.418Z,100.00
2022-12-26T04:03:32.717Z,100.00
2022-12-26T04:06:53.592Z,100.00
2022-12-26T04:10:03.616Z,100.00
2022-12-26T04:13:11.796Z,100.00
2022-12-26T04:16:21.879Z,100.00
2022-12-26T04:19:28.230Z,100.00
2022-12-26T04:22:42.053Z,100.00
2022-12-26T04:25:51.661Z,100.00
2022-12-26T04:28:56.932Z,100.00
2022-12-26T04:32:06.536Z,100.00
2022-12-26T04:35:15.837Z,100.00
2022-12-26T04:38:22.549Z,100.00
2022-12-26T04:41:30.896Z,100.00
2022-12-26T04:44:24.504Z,100.00
2022-12-26T04:47:12.513Z,100.00
2022-12-26T04:50:15.614Z,100.00
2022-12-26T04:53:03.254Z,100.00
2022-12-26T04:55:50.658Z,100.00
2022-12-26T04:58:39.442Z,100.00
2022-12-26T05:01:44.497Z,100.00
2022-12-26T05:04:49.528Z,100.00
2022-12-26T05:07:55.803Z,100.00
2022-12-26T05:10:43.225Z,100.00
2022-12-26T05:13:30.869Z,100.00
2022-12-26T05:16:36.884Z,100.00
2022-12-26T05:19:41.967Z,100.00
2022-12-26T05:22:50.974Z,100.00
2022-12-26T05:26:11.295Z,100.00
2022-12-26T05:29:01.574Z,100.00
2022-12-26T05:31:50.500Z,100.00
2022-12-26T05:34:36.844Z,100.00
2022-12-26T05:37:24.063Z,100.00
2022-12-26T05:40:12.041Z,100.00
2022-12-26T05:42:59.455Z,100.00
2022-12-26T05:45:46.842Z,100.00
2022-12-26T05:48:36.311Z,100.00
2022-12-26T05:51:23.731Z,100.00
2022-12-26T05:54:11.564Z,100.00
2022-12-26T05:56:59.803Z,100.00
2022-12-26T05:59:47.045Z,100.00
2022-12-26T06:02:34.605Z,100.00
2022-12-26T06:05:23.893Z,100.00
2022-12-26T06:08:11.609Z,100.00
2022-12-26T06:10:58.975Z,100.00
2022-12-26T06:13:46.562Z,100.00
2022-12-26T06:16:34.087Z,100.00
2022-12-26T06:19:21.565Z,100.00
2022-12-26T06:22:11.303Z,100.00
2022-12-26T06:24:58.997Z,100.00
2022-12-26T06:27:46.554Z,100.00
2022-12-26T06:30:34.280Z,100.00
2022-12-26T06:33:22.456Z,100.00
2022-12-26T06:36:12.649Z,100.00
2022-12-26T06:39:02.037Z,100.00
2022-12-26T06:41:49.623Z,100.00
2022-12-26T06:44:36.989Z,100.00
2022-12-26T06:47:24.623Z,100.00
2022-12-26T06:50:12.332Z,100.00
2022-12-26T06:52:59.497Z,100.00
2022-12-26T06:55:48.856Z,100.00
2022-12-26T06:58:36.880Z,100.00
2022-12-26T07:01:25.962Z,100.00
2022-12-26T07:04:14.844Z,100.00
2022-12-26T07:07:02.077Z,100.00
2022-12-26T07:09:49.286Z,100.00
2022-12-26T07:12:38.299Z,100.00
2022-12-26T07:15:25.521Z,100.00
2022-12-26T07:18:13.218Z,100.00
2022-12-26T07:21:00.942Z,100.00
2022-12-26T07:23:48.343Z,100.00
2022-12-26T07:26:35.925Z,100.00
2022-12-26T07:29:25.001Z,100.00
2022-12-26T07:32:12.342Z,100.00
2022-12-26T07:34:59.665Z,100.00
2022-12-26T07:37:47.020Z,100.00
2022-12-26T07:40:34.563Z,100.00
2022-12-26T07:43:22.131Z,100.00
2022-12-26T07:46:12.422Z,100.00
2022-12-26T07:48:59.882Z,100.00
2022-12-26T07:51:47.225Z,100.00
2022-12-26T07:54:37.578Z,100.00
2022-12-26T08:00:32.807Z,100.00
2022-12-26T08:03:21.916Z,100.00
2022-12-26T08:06:11.471Z,100.00
2022-12-26T08:08:58.915Z,100.00
2022-12-26T08:11:47.043Z,100.00
2022-12-26T08:14:34.858Z,100.00
2022-12-26T08:17:22.380Z,100.00
2022-12-26T08:20:11.552Z,100.00
2022-12-26T08:22:59.016Z,100.00
2022-12-26T08:25:46.477Z,100.00
2022-12-26T08:28:33.731Z,100.00
2022-12-26T08:34:10.876Z,100.00
2022-12-26T08:37:00.279Z,100.00
2022-12-26T08:39:48.508Z,100.00
2022-12-26T08:42:44.590Z,100.00
2022-12-26T08:45:37.883Z,100.00
2022-12-26T08:48:26.036Z,100.00
2022-12-26T08:51:15.837Z,100.00
2022-12-26T08:54:04.659Z,100.00
2022-12-26T08:56:51.951Z,100.00
2022-12-26T08:59:39.298Z,100.00
2022-12-26T09:02:26.991Z,100.00
2022-12-26T09:05:14.833Z,100.00
2022-12-26T09:08:02.314Z,100.00
2022-12-26T09:10:51.165Z,100.00
2022-12-26T09:13:38.845Z,100.00
2022-12-26T09:16:31.546Z,100.00
2022-12-26T09:19:22.799Z,100.00
2022-12-26T09:22:33.400Z,100.00
2022-12-26T09:25:24.784Z,100.00
2022-12-26T09:28:13.533Z,100.00
2022-12-26T09:31:02.021Z,100.00
2022-12-26T09:33:50.279Z,100.00
2022-12-26T09:36:40.217Z,100.00
2022-12-26T09:39:28.135Z,100.00
2022-12-26T09:42:25.235Z,100.00
2022-12-26T09:45:17.350Z,100.00
2022-12-26T09:48:15.505Z,100.00
2022-12-26T09:51:03.064Z,100.00
2022-12-26T09:53:51.127Z,99.92
2022-12-26T09:59:52.809Z,98.68
2022-12-26T10:02:41.721Z,98.66
2022-12-26T10:05:35.998Z,97.52
2022-12-26T10:08:32.490Z,97.64
2022-12-26T10:11:41.097Z,97.49
2022-12-26T10:14:38.913Z,96.61
2022-12-26T10:17:34.406Z,95.66
2022-12-26T10:20:34.107Z,94.95
2022-12-26T10:23:31.777Z,94.25
2022-12-26T10:26:23.833Z,95.95
2022-12-26T10:29:20.651Z,95.25
2022-12-26T10:32:14.583Z,95.21
2022-12-26T10:35:03.200Z,95.92
2022-12-26T10:37:54.987Z,95.85
2022-12-26T10:40:46.075Z,94.53
2022-12-26T10:43:35.879Z,93.36
2022-12-26T10:46:37.872Z,94.12
2022-12-26T10:49:28.326Z,92.96
2022-12-26T10:52:18.136Z,90.82
2022-12-26T10:55:28.260Z,90.30
2022-12-26T10:58:20.615Z,89.16
2022-12-26T11:01:33.906Z,88.33
2022-12-26T11:04:53.153Z,89.41
2022-12-26T11:07:35.405Z,88.06
2022-12-26T11:10:27.826Z,88.86
2022-12-26T11:13:22.069Z,87.12
2022-12-26T11:16:11.117Z,87.32
2022-12-26T11:19:00.093Z,87.47
2022-12-26T11:21:48.437Z,86.30
2022-12-26T11:24:36.040Z,86.67
2022-12-26T11:27:25.938Z,86.89
2022-12-26T11:30:26.261Z,88.45
2022-12-26T11:33:29.406Z,87.17
2022-12-26T11:36:22.074Z,88.27
2022-12-26T11:39:22.509Z,88.33
2022-12-26T11:42:12.136Z,88.03
2022-12-26T11:45:11.094Z,87.99
2022-12-26T11:48:01.965Z,87.92
2022-12-26T11:50:49.804Z,87.27
2022-12-26T11:53:37.620Z,86.93
2022-12-26T11:56:28.446Z,86.57
2022-12-26T11:59:20.804Z,86.96
2022-12-26T12:02:22.788Z,86.56
2022-12-26T12:05:17.294Z,87.25
2022-12-26T12:08:15.937Z,87.04
2022-12-26T12:11:18.651Z,85.44
2022-12-26T12:14:18.977Z,85.54
2022-12-26T12:17:16.645Z,84.41
2022-12-26T12:20:30.331Z,84.96
2022-12-26T12:23:30.736Z,84.49
2022-12-26T12:26:25.360Z,84.26
2022-12-26T12:29:36.786Z,84.38
2022-12-26T12:32:30.435Z,85.05
2022-12-26T12:35:34.430Z,85.53
2022-12-26T12:38:31.630Z,85.74
2022-12-26T12:41:32.319Z,87.22
2022-12-26T12:44:24.305Z,87.72
2022-12-26T12:47:22.708Z,87.12
2022-12-26T12:50:19.999Z,87.61
2022-12-26T12:53:20.872Z,87.64
2022-12-26T12:56:25.647Z,88.56
2022-12-26T12:59:25.278Z,87.47
2022-12-26T13:02:20.838Z,87.75
2022-12-26T13:05:24.847Z,87.21
2022-12-26T13:08:20.435Z,87.45
2022-12-26T13:11:12.966Z,87.03
2022-12-26T13:14:04.569Z,88.76
2022-12-26T13:16:57.577Z,89.82
2022-12-26T13:19:51.945Z,93.35
2022-12-26T13:23:03.112Z,95.78
2022-12-26T13:26:05.166Z,97.60
2022-12-26T13:29:00.170Z,97.71
2022-12-26T13:31:48.448Z,99.96
2022-12-26T13:34:37.687Z,100.00
2022-12-26T13:37:57.818Z,100.00
2022-12-26T13:40:49.136Z,100.00
2022-12-26T13:44:03.168Z,100.00
2022-12-26T13:46:58.588Z,100.00
2022-12-26T13:49:46.471Z,100.00
2022-12-26T13:52:35.791Z,100.00
2022-12-26T13:55:44.846Z,100.00
2022-12-26T13:58:51.428Z,100.00
2022-12-26T14:01:55.016Z,98.65
2022-12-26T14:04:53.334Z,97.86
2022-12-26T14:07:47.382Z,97.08
2022-12-26T14:10:44.370Z,95.91
2022-12-26T14:13:48.114Z,95.00
2022-12-26T14:16:47.337Z,95.43
2022-12-26T14:19:45.577Z,95.65
2022-12-26T14:22:44.679Z,95.24
2022-12-26T14:25:40.321Z,94.56
2022-12-26T14:28:34.816Z,95.40
2022-12-26T14:31:32.395Z,95.73
2022-12-26T14:34:46.987Z,95.43
2022-12-26T14:37:46.207Z,95.92
2022-12-26T14:40:35.675Z,96.80
2022-12-26T14:43:33.237Z,97.14
2022-12-26T14:46:58.037Z,97.44
2022-12-26T14:49:47.810Z,97.06
2022-12-26T14:52:43.579Z,96.10
2022-12-26T14:55:59.061Z,95.94
2022-12-26T14:58:47.351Z,96.34
2022-12-26T15:02:01.286Z,96.81
2022-12-26T15:05:12.511Z,96.89
2022-12-26T15:08:20.112Z,96.60
2022-12-26T15:11:52.071Z,96.82
2022-12-26T15:15:14.534Z,95.96
2022-12-26T15:18:57.725Z,95.92
2022-12-26T15:22:12.139Z,95.06
2022-12-26T15:25:22.793Z,94.10
2022-12-26T15:28:44.707Z,93.06
2022-12-26T15:31:47.980Z,94.07
2022-12-26T15:34:50.839Z,93.75
2022-12-26T15:37:59.649Z,93.92
2022-12-26T15:40:57.185Z,93.97
2022-12-26T15:43:56.526Z,94.27
2022-12-26T15:46:45.855Z,94.25
2022-12-26T15:50:02.151Z,94.47
2022-12-26T15:53:02.909Z,95.28
2022-12-26T15:56:16.176Z,95.77
2022-12-26T15:59:28.695Z,95.17
2022-12-26T16:02:34.534Z,95.29
2022-12-26T16:05:43.458Z,94.31
2022-12-26T16:09:01.483Z,94.46
2022-12-26T16:11:55.933Z,93.99
2022-12-26T16:14:45.358Z,93.47
2022-12-26T16:17:34.265Z,90.87
2022-12-26T16:20:45.776Z,90.99
2022-12-26T16:23:39.318Z,90.53
2022-12-26T16:26:31.901Z,91.42
2022-12-26T16:29:22.022Z,90.85
2022-12-26T16:32:09.744Z,89.87
2022-12-26T16:34:59.720Z,88.95
2022-12-26T16:37:48.363Z,90.34
2022-12-26T16:40:41.735Z,90.11
2022-12-26T16:43:31.999Z,89.24
2022-12-26T16:46:22.827Z,89.77
2022-12-26T16:49:11.698Z,89.45
2022-12-26T16:51:59.605Z,89.97
2022-12-26T16:54:47.218Z,90.95
2022-12-26T16:57:36.692Z,90.79
2022-12-26T17:00:26.856Z,91.48
2022-12-26T17:03:37.612Z,90.65
2022-12-26T17:06:30.096Z,89.69
2022-12-26T17:09:19.126Z,89.77
2022-12-26T17:12:09.155Z,89.15
2022-12-26T17:15:00.218Z,89.47
2022-12-26T17:17:49.521Z,87.45
2022-12-26T17:20:42.187Z,89.00
2022-12-26T17:23:40.381Z,88.73
2022-12-26T17:26:31.304Z,87.24
2022-12-26T17:29:51.698Z,88.03
2022-12-26T17:32:44.734Z,87.30
2022-12-26T17:36:21.311Z,87.16
2022-12-26T17:38:44.772Z,87.92
2022-12-26T17:41:32.388Z,87.49
2022-12-26T17:44:38.437Z,86.97
2022-12-26T17:47:28.615Z,86.37
2022-12-26T17:50:16.212Z,86.47
2022-12-26T17:53:15.538Z,86.77
2022-12-26T17:56:05.108Z,87.22
2022-12-26T17:58:53.200Z,87.39
2022-12-26T18:01:40.935Z,87.40
2022-12-26T18:04:28.531Z,86.60
2022-12-26T18:07:27.150Z,87.26
2022-12-26T18:10:24.663Z,87.10
2022-12-26T18:13:17.249Z,87.51
2022-12-26T18:16:06.290Z,87.48
2022-12-26T18:18:54.215Z,88.70
2022-12-26T18:21:41.921Z,88.79
2022-12-26T18:24:29.664Z,89.15
2022-12-26T18:27:22.877Z,89.65
2022-12-26T18:30:17.792Z,89.03
2022-12-26T18:33:05.802Z,89.70
2022-12-26T18:35:54.092Z,89.30
2022-12-26T18:38:42.036Z,89.37
2022-12-26T18:41:29.835Z,88.75
2022-12-26T18:44:19.497Z,89.69
2022-12-26T18:47:07.084Z,91.13
2022-12-26T18:49:54.786Z,91.53
2022-12-26T18:52:42.035Z,92.31
2022-12-26T18:55:30.131Z,91.30
2022-12-26T18:58:17.819Z,91.27
2022-12-26T19:01:07.285Z,91.49
2022-12-26T19:03:56.917Z,90.84
2022-12-26T19:06:44.615Z,91.33
2022-12-26T19:09:32.619Z,89.81
2022-12-26T19:12:21.616Z,90.81
2022-12-26T19:15:10.500Z,89.91
2022-12-26T19:17:59.326Z,90.33
2022-12-26T19:20:46.638Z,90.54
2022-12-26T19:23:34.215Z,91.15
2022-12-26T19:26:22.347Z,90.19
2022-12-26T19:29:11.245Z,90.32
2022-12-26T19:31:58.868Z,89.61
2022-12-26T19:34:48.139Z,88.28
2022-12-26T19:37:35.677Z,88.82
2022-12-26T19:40:25.355Z,89.45
2022-12-26T19:43:13.432Z,89.67
2022-12-26T19:46:01.836Z,90.42
2022-12-26T19:48:49.569Z,91.43
2022-12-26T19:51:38.748Z,91.22
2022-12-26T19:54:26.253Z,90.93
2022-12-26T19:57:13.817Z,91.26
2022-12-26T20:00:01.837Z,91.33
2022-12-26T20:02:59.706Z,91.94
2022-12-26T20:05:47.399Z,92.88
2022-12-26T20:08:36.718Z,92.97
2022-12-26T20:11:26.165Z,92.12
2022-12-26T20:14:17.592Z,91.98
2022-12-26T20:17:08.015Z,93.10
2022-12-26T20:19:58.711Z,91.82
2022-12-26T20:22:52.685Z,90.30
2022-12-26T20:25:42.135Z,91.17
2022-12-26T20:28:30.145Z,90.98
2022-12-26T20:31:20.867Z,90.12
2022-12-26T20:34:09.050Z,89.21
2022-12-26T20:36:56.568Z,90.58
2022-12-26T20:39:44.543Z,89.83
2022-12-26T20:42:33.440Z,88.89
2022-12-26T20:45:21.329Z,89.65
2022-12-26T20:48:09.146Z,90.39
2022-12-26T20:50:57.801Z,89.97
2022-12-26T20:53:47.257Z,90.32
2022-12-26T20:56:34.910Z,90.80
2022-12-26T20:59:24.086Z,91.44
2022-12-26T21:02:13.425Z,91.47
2022-12-26T21:05:01.636Z,91.11
2022-12-26T21:07:49.588Z,90.28
2022-12-26T21:10:37.717Z,90.26
2022-12-26T21:13:25.185Z,90.99
2022-12-26T21:16:18.847Z,91.07
2022-12-26T21:19:14.706Z,91.61
2022-12-26T21:22:03.104Z,91.79
2022-12-26T21:24:51.105Z,91.70
2022-12-26T21:27:42.748Z,92.57
2022-12-26T21:30:30.636Z,92.10
2022-12-26T21:33:19.979Z,91.79
2022-12-26T21:36:14.846Z,92.01
2022-12-26T21:39:07.988Z,91.62
2022-12-26T21:41:55.375Z,92.24
2022-12-26T21:44:42.797Z,92.24
2022-12-26T21:47:30.852Z,91.80
2022-12-26T21:50:19.876Z,92.11
2022-12-26T21:53:10.219Z,92.48
2022-12-26T21:56:05.480Z,92.36
2022-12-26T21:59:10.307Z,93.40
2022-12-26T22:01:58.288Z,93.16
2022-12-26T22:04:44.973Z,94.75
2022-12-26T22:07:33.922Z,95.96
2022-12-26T22:10:39.193Z,95.89
2022-12-26T22:13:27.280Z,96.67
2022-12-26T22:16:16.443Z,96.38
2022-12-26T22:19:04.366Z,97.18
2022-12-26T22:21:52.189Z,96.92
2022-12-26T22:24:41.267Z,96.94
2022-12-26T22:27:31.347Z,96.43
2022-12-26T22:30:19.357Z,96.55
2022-12-26T22:33:07.144Z,96.96
2022-12-26T22:35:55.104Z,96.08
2022-12-26T22:38:42.508Z,95.33
2022-12-26T22:41:31.735Z,95.56
2022-12-26T22:44:19.301Z,95.13
2022-12-26T22:47:07.130Z,94.84
2022-12-26T22:49:54.674Z,94.40
2022-12-26T22:52:42.510Z,93.22
2022-12-26T22:55:29.856Z,93.31
2022-12-26T22:58:20.205Z,92.85
2022-12-26T23:01:13.552Z,92.57
2022-12-26T23:04:04.923Z,92.63
2022-12-26T23:06:53.126Z,92.92
2022-12-26T23:09:40.828Z,92.39
2022-12-26T23:12:47.371Z,92.03
2022-12-26T23:15:43.517Z,91.76
2022-12-26T23:18:55.513Z,90.54
2022-12-26T23:21:44.270Z,89.84
2022-12-26T23:24:33.713Z,89.61
2022-12-26T23:27:35.185Z,89.06
2022-12-26T23:30:23.440Z,90.20
2022-12-26T23:33:12.222Z,89.35
2022-12-26T23:35:59.824Z,88.58
2022-12-26T23:38:48.295Z,88.83
2022-12-26T23:41:36.128Z,88.25
2022-12-26T23:44:23.366Z,89.08
2022-12-26T23:47:11.204Z,89.73
2022-12-26T23:50:00.401Z,89.71
2022-12-26T23:52:47.840Z,88.90
2022-12-26T23:55:35.757Z,88.77
2022-12-26T23:58:23.257Z,88.21
